sensor_id;sensor_type;location;lat;lon;timestamp;pressure;altitude;pressure_sealevel;temperature;humidity
79705;BME280;69496;53.120;8.764;2023-05-01T00:00:41;102068.00;;;9.48;67.22
79705;BME280;69496;53.120;8.764;2023-05-01T00:03:14;102065.00;;;9.40;67.60
79705;BME280;69496;53.120;8.764;2023-05-01T00:05:41;102062.00;;;9.33;67.64
79705;BME280;69496;53.120;8.764;2023-05-01T00:08:11;102058.00;;;9.26;68.01
79705;BME280;69496;53.120;8.764;2023-05-01T00:10:41;102054.00;;;9.22;67.81
79705;BME280;69496;53.120;8.764;2023-05-01T00:13:11;102051.00;;;9.19;67.89
79705;BME280;69496;53.120;8.764;2023-05-01T00:15:42;102048.00;;;9.17;67.84
79705;BME280;69496;53.120;8.764;2023-05-01T00:18:11;102044.00;;;9.16;67.70
79705;BME280;69496;53.120;8.764;2023-05-01T00:20:41;102041.00;;;9.16;67.67
79705;BME280;69496;53.120;8.764;2023-05-01T00:23:12;102038.00;;;9.17;67.49
79705;BME280;69496;53.120;8.764;2023-05-01T00:25:42;102036.00;;;9.17;67.71
79705;BME280;69496;53.120;8.764;2023-05-01T00:28:11;102034.00;;;9.18;67.59
79705;BME280;69496;53.120;8.764;2023-05-01T00:30:41;102033.00;;;9.18;67.53
79705;BME280;69496;53.120;8.764;2023-05-01T00:33:11;102031.00;;;9.19;67.40
79705;BME280;69496;53.120;8.764;2023-05-01T00:35:44;102029.00;;;9.19;67.61
79705;BME280;69496;53.120;8.764;2023-05-01T00:38:12;102027.00;;;9.18;67.73
79705;BME280;69496;53.120;8.764;2023-05-01T00:40:44;102025.00;;;9.18;67.63
79705;BME280;69496;53.120;8.764;2023-05-01T00:43:14;102023.00;;;9.17;67.63
79705;BME280;69496;53.120;8.764;2023-05-01T00:45:43;102020.00;;;9.16;67.67
79705;BME280;69496;53.120;8.764;2023-05-01T00:48:11;102019.00;;;9.14;67.75
79705;BME280;69496;53.120;8.764;2023-05-01T00:50:43;102017.00;;;9.12;67.82
79705;BME280;69496;53.120;8.764;2023-05-01T00:53:12;102014.00;;;9.10;67.93
79705;BME280;69496;53.120;8.764;2023-05-01T00:55:41;102012.00;;;9.08;67.98
79705;BME280;69496;53.120;8.764;2023-05-01T00:58:12;102010.00;;;9.06;68.13
79705;BME280;69496;53.120;8.764;2023-05-01T01:00:42;102008.00;;;9.05;67.93
79705;BME280;69496;53.120;8.764;2023-05-01T01:03:11;102005.00;;;9.03;68.14
79705;BME280;69496;53.120;8.764;2023-05-01T01:05:45;102003.00;;;9.01;68.18
79705;BME280;69496;53.120;8.764;2023-05-01T01:08:19;102002.00;;;8.99;68.31
79705;BME280;69496;53.120;8.764;2023-05-01T01:11:00;102001.00;;;8.97;68.22
79705;BME280;69496;53.120;8.764;2023-05-01T01:15:51;101996.00;;;8.92;68.31
79705;BME280;69496;53.120;8.764;2023-05-01T01:18:51;101995.00;;;8.90;68.44
79705;BME280;69496;53.120;8.764;2023-05-01T01:28:36;101987.00;;;8.80;68.63
79705;BME280;69496;53.120;8.764;2023-05-01T01:35:46;101982.00;;;8.72;68.93
79705;BME280;69496;53.120;8.764;2023-05-01T01:38:21;101979.00;;;8.69;68.96
79705;BME280;69496;53.120;8.764;2023-05-01T01:40:52;101976.00;;;8.66;69.25
79705;BME280;69496;53.120;8.764;2023-05-01T01:43:17;101973.00;;;8.62;69.23
79705;BME280;69496;53.120;8.764;2023-05-01T01:45:46;101969.00;;;8.58;69.27
79705;BME280;69496;53.120;8.764;2023-05-01T01:48:21;101965.00;;;8.56;69.20
79705;BME280;69496;53.120;8.764;2023-05-01T01:50:43;101961.00;;;8.53;69.20
79705;BME280;69496;53.120;8.764;2023-05-01T01:53:15;101958.00;;;8.50;69.29
79705;BME280;69496;53.120;8.764;2023-05-01T01:55:43;101954.00;;;8.48;69.30
79705;BME280;69496;53.120;8.764;2023-05-01T01:58:12;101951.00;;;8.46;69.15
79705;BME280;69496;53.120;8.764;2023-05-01T02:00:44;101947.00;;;8.44;69.20
79705;BME280;69496;53.120;8.764;2023-05-01T02:03:12;101943.00;;;8.42;69.39
79705;BME280;69496;53.120;8.764;2023-05-01T02:05:42;101940.00;;;8.40;69.38
79705;BME280;69496;53.120;8.764;2023-05-01T02:08:13;101936.00;;;8.38;69.32
79705;BME280;69496;53.120;8.764;2023-05-01T02:10:42;101932.00;;;8.37;69.19
79705;BME280;69496;53.120;8.764;2023-05-01T02:13:13;101929.00;;;8.37;69.11
79705;BME280;69496;53.120;8.764;2023-05-01T02:15:42;101927.00;;;8.36;69.04
79705;BME280;69496;53.120;8.764;2023-05-01T02:18:13;101926.00;;;8.34;69.06
79705;BME280;69496;53.120;8.764;2023-05-01T02:20:41;101925.00;;;8.32;69.15
79705;BME280;69496;53.120;8.764;2023-05-01T02:23:11;101924.00;;;8.30;69.18
79705;BME280;69496;53.120;8.764;2023-05-01T02:25:43;101923.00;;;8.28;69.17
79705;BME280;69496;53.120;8.764;2023-05-01T02:28:13;101921.00;;;8.23;69.22
79705;BME280;69496;53.120;8.764;2023-05-01T02:30:41;101918.00;;;8.16;69.48
79705;BME280;69496;53.120;8.764;2023-05-01T02:33:12;101916.00;;;8.07;69.78
79705;BME280;69496;53.120;8.764;2023-05-01T02:35:42;101913.00;;;8.00;70.12
79705;BME280;69496;53.120;8.764;2023-05-01T02:38:13;101911.00;;;7.97;69.77
79705;BME280;69496;53.120;8.764;2023-05-01T02:40:47;101908.00;;;7.96;69.64
79705;BME280;69496;53.120;8.764;2023-05-01T02:43:14;101905.00;;;7.96;69.59
79705;BME280;69496;53.120;8.764;2023-05-01T02:45:43;101904.00;;;7.97;69.60
79705;BME280;69496;53.120;8.764;2023-05-01T02:48:15;101902.00;;;7.99;69.48
79705;BME280;69496;53.120;8.764;2023-05-01T02:50:43;101899.00;;;8.00;69.56
79705;BME280;69496;53.120;8.764;2023-05-01T02:53:12;101897.00;;;8.00;69.40
79705;BME280;69496;53.120;8.764;2023-05-01T02:55:42;101894.00;;;7.99;69.40
79705;BME280;69496;53.120;8.764;2023-05-01T02:58:18;101890.00;;;7.98;69.35
79705;BME280;69496;53.120;8.764;2023-05-01T03:00:42;101887.00;;;7.98;69.33
79705;BME280;69496;53.120;8.764;2023-05-01T03:03:11;101884.00;;;7.98;69.23
79705;BME280;69496;53.120;8.764;2023-05-01T03:05:41;101880.00;;;7.99;69.04
79705;BME280;69496;53.120;8.764;2023-05-01T03:08:13;101876.00;;;8.00;68.80
79705;BME280;69496;53.120;8.764;2023-05-01T03:10:43;101872.00;;;8.00;68.95
79705;BME280;69496;53.120;8.764;2023-05-01T03:13:11;101867.00;;;7.99;68.80
79705;BME280;69496;53.120;8.764;2023-05-01T03:15:42;101864.00;;;7.99;68.72
79705;BME280;69496;53.120;8.764;2023-05-01T03:18:11;101862.00;;;7.99;68.62
79705;BME280;69496;53.120;8.764;2023-05-01T03:20:52;101858.00;;;7.99;68.50
79705;BME280;69496;53.120;8.764;2023-05-01T03:23:11;101856.00;;;7.99;68.81
79705;BME280;69496;53.120;8.764;2023-05-01T03:25:41;101854.00;;;7.98;68.69
79705;BME280;69496;53.120;8.764;2023-05-01T03:28:11;101851.00;;;7.97;68.60
79705;BME280;69496;53.120;8.764;2023-05-01T03:30:41;101849.00;;;7.97;68.74
79705;BME280;69496;53.120;8.764;2023-05-01T03:33:11;101846.00;;;7.97;68.81
79705;BME280;69496;53.120;8.764;2023-05-01T03:35:41;101844.00;;;7.96;68.99
79705;BME280;69496;53.120;8.764;2023-05-01T03:38:11;101842.00;;;7.95;68.98
79705;BME280;69496;53.120;8.764;2023-05-01T03:40:41;101839.00;;;7.88;69.46
79705;BME280;69496;53.120;8.764;2023-05-01T03:43:11;101837.00;;;7.83;70.07
79705;BME280;69496;53.120;8.764;2023-05-01T03:45:41;101835.00;;;7.80;69.78
79705;BME280;69496;53.120;8.764;2023-05-01T03:48:11;101832.00;;;7.78;69.36
79705;BME280;69496;53.120;8.764;2023-05-01T03:50:42;101831.00;;;7.77;69.43
79705;BME280;69496;53.120;8.764;2023-05-01T03:53:11;101829.00;;;7.76;69.58
79705;BME280;69496;53.120;8.764;2023-05-01T03:55:41;101827.00;;;7.76;69.34
79705;BME280;69496;53.120;8.764;2023-05-01T03:58:12;101824.00;;;7.76;69.35
79705;BME280;69496;53.120;8.764;2023-05-01T04:00:42;101820.00;;;7.76;69.19
79705;BME280;69496;53.120;8.764;2023-05-01T04:03:11;101818.00;;;7.77;69.18
79705;BME280;69496;53.120;8.764;2023-05-01T04:05:41;101815.00;;;7.77;69.14
79705;BME280;69496;53.120;8.764;2023-05-01T04:08:11;101814.00;;;7.77;69.09
79705;BME280;69496;53.120;8.764;2023-05-01T04:10:41;101812.00;;;7.76;69.09
79705;BME280;69496;53.120;8.764;2023-05-01T04:13:12;101811.00;;;7.74;69.14
79705;BME280;69496;53.120;8.764;2023-05-01T04:15:44;101810.00;;;7.73;69.14
79705;BME280;69496;53.120;8.764;2023-05-01T04:18:11;101809.00;;;7.74;69.03
79705;BME280;69496;53.120;8.764;2023-05-01T04:20:41;101808.00;;;7.75;68.78
79705;BME280;69496;53.120;8.764;2023-05-01T04:23:12;101808.00;;;7.77;68.78
79705;BME280;69496;53.120;8.764;2023-05-01T04:25:41;101808.00;;;7.78;68.58
79705;BME280;69496;53.120;8.764;2023-05-01T04:28:12;101807.00;;;7.79;68.72
79705;BME280;69496;53.120;8.764;2023-05-01T04:30:41;101807.00;;;7.79;68.85
79705;BME280;69496;53.120;8.764;2023-05-01T04:33:11;101805.00;;;7.79;68.57
79705;BME280;69496;53.120;8.764;2023-05-01T04:35:41;101806.00;;;7.81;68.34
79705;BME280;69496;53.120;8.764;2023-05-01T04:38:11;101805.00;;;7.82;68.31
79705;BME280;69496;53.120;8.764;2023-05-01T04:40:41;101804.00;;;7.83;68.33
79705;BME280;69496;53.120;8.764;2023-05-01T04:43:11;101801.00;;;7.84;68.22
79705;BME280;69496;53.120;8.764;2023-05-01T04:45:41;101799.00;;;7.87;67.85
79705;BME280;69496;53.120;8.764;2023-05-01T04:48:11;101796.00;;;7.90;67.55
79705;BME280;69496;53.120;8.764;2023-05-01T04:50:41;101793.00;;;7.94;67.47
79705;BME280;69496;53.120;8.764;2023-05-01T04:53:11;101791.00;;;7.98;67.67
79705;BME280;69496;53.120;8.764;2023-05-01T04:55:41;101789.00;;;8.01;68.13
79705;BME280;69496;53.120;8.764;2023-05-01T04:58:11;101787.00;;;8.04;68.53
79705;BME280;69496;53.120;8.764;2023-05-01T05:00:41;101784.00;;;8.07;67.96
79705;BME280;69496;53.120;8.764;2023-05-01T05:03:11;101782.00;;;8.12;67.38
79705;BME280;69496;53.120;8.764;2023-05-01T05:05:41;101781.00;;;8.18;67.38
79705;BME280;69496;53.120;8.764;2023-05-01T05:08:11;101782.00;;;8.24;67.39
79705;BME280;69496;53.120;8.764;2023-05-01T05:10:41;101780.00;;;8.30;67.22
79705;BME280;69496;53.120;8.764;2023-05-01T05:13:11;101778.00;;;8.37;67.38
79705;BME280;69496;53.120;8.764;2023-05-01T05:15:42;101776.00;;;8.43;67.55
79705;BME280;69496;53.120;8.764;2023-05-01T05:18:11;101775.00;;;8.49;67.23
79705;BME280;69496;53.120;8.764;2023-05-01T05:20:41;101774.00;;;8.56;67.14
79705;BME280;69496;53.120;8.764;2023-05-01T05:23:11;101773.00;;;8.62;66.92
79705;BME280;69496;53.120;8.764;2023-05-01T05:25:42;101772.00;;;8.68;66.01
79705;BME280;69496;53.120;8.764;2023-05-01T05:28:11;101770.00;;;8.74;66.13
79705;BME280;69496;53.120;8.764;2023-05-01T05:30:41;101770.00;;;8.82;66.12
79705;BME280;69496;53.120;8.764;2023-05-01T05:33:11;101768.00;;;8.88;65.87
79705;BME280;69496;53.120;8.764;2023-05-01T05:35:41;101767.00;;;8.95;66.06
79705;BME280;69496;53.120;8.764;2023-05-01T05:38:11;101767.00;;;9.01;65.74
79705;BME280;69496;53.120;8.764;2023-05-01T05:40:42;101766.00;;;9.06;65.62
79705;BME280;69496;53.120;8.764;2023-05-01T05:43:11;101764.00;;;9.11;65.29
79705;BME280;69496;53.120;8.764;2023-05-01T05:45:41;101762.00;;;9.15;65.23
79705;BME280;69496;53.120;8.764;2023-05-01T05:48:11;101760.00;;;9.20;64.91
79705;BME280;69496;53.120;8.764;2023-05-01T05:50:41;101760.00;;;9.27;64.31
79705;BME280;69496;53.120;8.764;2023-05-01T05:53:13;101759.00;;;9.34;63.57
79705;BME280;69496;53.120;8.764;2023-05-01T05:55:47;101757.00;;;9.41;63.15
79705;BME280;69496;53.120;8.764;2023-05-01T05:58:11;101756.00;;;9.48;62.85
79705;BME280;69496;53.120;8.764;2023-05-01T06:00:41;101754.00;;;9.55;62.75
79705;BME280;69496;53.120;8.764;2023-05-01T06:03:11;101754.00;;;9.61;62.61
79705;BME280;69496;53.120;8.764;2023-05-01T06:05:42;101753.00;;;9.68;62.43
79705;BME280;69496;53.120;8.764;2023-05-01T06:08:11;101751.00;;;9.76;62.03
79705;BME280;69496;53.120;8.764;2023-05-01T06:10:42;101749.00;;;9.83;61.82
79705;BME280;69496;53.120;8.764;2023-05-01T06:13:13;101746.00;;;9.90;61.29
79705;BME280;69496;53.120;8.764;2023-05-01T06:15:41;101744.00;;;9.97;61.17
79705;BME280;69496;53.120;8.764;2023-05-01T06:18:11;101742.00;;;10.04;61.07
79705;BME280;69496;53.120;8.764;2023-05-01T06:20:42;101740.00;;;10.10;61.14
79705;BME280;69496;53.120;8.764;2023-05-01T06:23:13;101739.00;;;10.15;61.00
79705;BME280;69496;53.120;8.764;2023-05-01T06:25:42;101737.00;;;10.21;60.79
79705;BME280;69496;53.120;8.764;2023-05-01T06:28:11;101736.00;;;10.26;60.63
79705;BME280;69496;53.120;8.764;2023-05-01T06:30:41;101735.00;;;10.31;60.47
79705;BME280;69496;53.120;8.764;2023-05-01T06:33:11;101733.00;;;10.36;60.22
79705;BME280;69496;53.120;8.764;2023-05-01T06:35:41;101731.00;;;10.41;60.77
79705;BME280;69496;53.120;8.764;2023-05-01T06:38:11;101730.00;;;10.46;60.22
79705;BME280;69496;53.120;8.764;2023-05-01T06:40:41;101728.00;;;10.52;59.76
79705;BME280;69496;53.120;8.764;2023-05-01T06:43:11;101726.00;;;10.58;59.41
79705;BME280;69496;53.120;8.764;2023-05-01T06:45:42;101724.00;;;10.65;59.15
79705;BME280;69496;53.120;8.764;2023-05-01T06:48:11;101722.00;;;10.71;58.70
79705;BME280;69496;53.120;8.764;2023-05-01T06:50:41;101721.00;;;10.77;58.29
79705;BME280;69496;53.120;8.764;2023-05-01T06:53:11;101719.00;;;10.83;57.71
79705;BME280;69496;53.120;8.764;2023-05-01T06:55:41;101717.00;;;10.88;57.50
79705;BME280;69496;53.120;8.764;2023-05-01T06:58:11;101715.00;;;10.93;57.01
79705;BME280;69496;53.120;8.764;2023-05-01T07:00:41;101712.00;;;10.98;57.18
79705;BME280;69496;53.120;8.764;2023-05-01T07:03:11;101710.00;;;11.02;57.15
79705;BME280;69496;53.120;8.764;2023-05-01T07:05:41;101708.00;;;11.06;56.80
79705;BME280;69496;53.120;8.764;2023-05-01T07:08:11;101705.00;;;11.10;57.08
79705;BME280;69496;53.120;8.764;2023-05-01T07:10:41;101702.00;;;11.16;57.22
79705;BME280;69496;53.120;8.764;2023-05-01T07:13:11;101700.00;;;11.21;57.31
79705;BME280;69496;53.120;8.764;2023-05-01T07:15:41;101699.00;;;11.27;57.10
79705;BME280;69496;53.120;8.764;2023-05-01T07:18:12;101697.00;;;11.33;55.95
79705;BME280;69496;53.120;8.764;2023-05-01T07:20:42;101694.00;;;11.39;56.22
79705;BME280;69496;53.120;8.764;2023-05-01T07:23:11;101690.00;;;11.45;55.99
79705;BME280;69496;53.120;8.764;2023-05-01T07:25:43;101687.00;;;11.50;56.28
79705;BME280;69496;53.120;8.764;2023-05-01T07:28:11;101684.00;;;11.56;56.54
79705;BME280;69496;53.120;8.764;2023-05-01T07:30:41;101683.00;;;11.63;55.78
79705;BME280;69496;53.120;8.764;2023-05-01T07:33:11;101682.00;;;11.69;55.87
79705;BME280;69496;53.120;8.764;2023-05-01T07:35:42;101681.00;;;11.76;56.07
79705;BME280;69496;53.120;8.764;2023-05-01T07:38:11;101681.00;;;11.82;55.75
79705;BME280;69496;53.120;8.764;2023-05-01T07:40:42;101681.00;;;11.89;55.51
79705;BME280;69496;53.120;8.764;2023-05-01T07:43:11;101679.00;;;11.95;55.52
79705;BME280;69496;53.120;8.764;2023-05-01T07:45:57;101678.00;;;12.00;55.59
79705;BME280;69496;53.120;8.764;2023-05-01T07:48:11;101675.00;;;12.06;55.89
79705;BME280;69496;53.120;8.764;2023-05-01T07:50:41;101672.00;;;12.11;56.04
79705;BME280;69496;53.120;8.764;2023-05-01T07:53:11;101670.00;;;12.17;56.27
79705;BME280;69496;53.120;8.764;2023-05-01T07:55:41;101667.00;;;12.23;55.87
79705;BME280;69496;53.120;8.764;2023-05-01T07:58:11;101665.00;;;12.28;55.16
79705;BME280;69496;53.120;8.764;2023-05-01T08:00:41;101662.00;;;12.33;55.25
79705;BME280;69496;53.120;8.764;2023-05-01T08:03:12;101660.00;;;12.40;55.43
79705;BME280;69496;53.120;8.764;2023-05-01T08:05:41;101658.00;;;12.47;55.29
79705;BME280;69496;53.120;8.764;2023-05-01T08:08:17;101655.00;;;12.54;54.83
79705;BME280;69496;53.120;8.764;2023-05-01T08:10:41;101653.00;;;12.63;54.84
79705;BME280;69496;53.120;8.764;2023-05-01T08:13:11;101650.00;;;12.71;54.20
79705;BME280;69496;53.120;8.764;2023-05-01T08:15:43;101649.00;;;12.80;54.84
79705;BME280;69496;53.120;8.764;2023-05-01T08:18:12;101645.00;;;12.87;54.41
79705;BME280;69496;53.120;8.764;2023-05-01T08:20:41;101642.00;;;12.94;54.38
79705;BME280;69496;53.120;8.764;2023-05-01T08:23:11;101639.00;;;13.01;54.46
79705;BME280;69496;53.120;8.764;2023-05-01T08:25:41;101637.00;;;13.07;54.46
79705;BME280;69496;53.120;8.764;2023-05-01T08:28:14;101637.00;;;13.14;54.14
79705;BME280;69496;53.120;8.764;2023-05-01T08:30:41;101635.00;;;13.21;54.53
79705;BME280;69496;53.120;8.764;2023-05-01T08:33:11;101633.00;;;13.27;54.38
79705;BME280;69496;53.120;8.764;2023-05-01T08:35:41;101632.00;;;13.33;53.74
79705;BME280;69496;53.120;8.764;2023-05-01T08:38:11;101631.00;;;13.39;54.26
79705;BME280;69496;53.120;8.764;2023-05-01T08:40:46;101631.00;;;13.44;54.22
79705;BME280;69496;53.120;8.764;2023-05-01T08:43:13;101630.00;;;13.48;53.95
79705;BME280;69496;53.120;8.764;2023-05-01T08:45:42;101628.00;;;13.52;53.98
79705;BME280;69496;53.120;8.764;2023-05-01T08:48:11;101627.00;;;13.57;54.36
79705;BME280;69496;53.120;8.764;2023-05-01T08:50:45;101625.00;;;13.63;53.60
79705;BME280;69496;53.120;8.764;2023-05-01T08:53:14;101624.00;;;13.69;53.45
79705;BME280;69496;53.120;8.764;2023-05-01T08:55:44;101621.00;;;13.75;53.76
79705;BME280;69496;53.120;8.764;2023-05-01T08:58:12;101617.00;;;13.81;53.70
79705;BME280;69496;53.120;8.764;2023-05-01T09:00:42;101614.00;;;13.87;53.03
79705;BME280;69496;53.120;8.764;2023-05-01T09:03:11;101611.00;;;13.92;53.23
79705;BME280;69496;53.120;8.764;2023-05-01T09:05:41;101607.00;;;13.97;53.03
79705;BME280;69496;53.120;8.764;2023-05-01T09:08:11;101603.00;;;14.04;51.83
79705;BME280;69496;53.120;8.764;2023-05-01T09:10:44;101599.00;;;14.11;51.76
79705;BME280;69496;53.120;8.764;2023-05-01T09:13:12;101596.00;;;14.20;51.79
79705;BME280;69496;53.120;8.764;2023-05-01T09:15:42;101596.00;;;14.30;51.49
79705;BME280;69496;53.120;8.764;2023-05-01T09:18:11;101595.00;;;14.39;51.09
79705;BME280;69496;53.120;8.764;2023-05-01T09:20:41;101596.00;;;14.48;51.32
79705;BME280;69496;53.120;8.764;2023-05-01T09:23:11;101596.00;;;14.55;51.25
79705;BME280;69496;53.120;8.764;2023-05-01T09:25:42;101597.00;;;14.62;51.69
79705;BME280;69496;53.120;8.764;2023-05-01T09:28:11;101598.00;;;14.66;50.83
79705;BME280;69496;53.120;8.764;2023-05-01T09:30:42;101597.00;;;14.68;50.34
79705;BME280;69496;53.120;8.764;2023-05-01T09:33:13;101596.00;;;14.69;50.65
79705;BME280;69496;53.120;8.764;2023-05-01T09:35:51;101595.00;;;14.70;52.10
79705;BME280;69496;53.120;8.764;2023-05-01T09:38:16;101594.00;;;14.72;51.25
79705;BME280;69496;53.120;8.764;2023-05-01T09:40:41;101596.00;;;14.73;51.78
79705;BME280;69496;53.120;8.764;2023-05-01T09:43:11;101596.00;;;14.74;52.12
79705;BME280;69496;53.120;8.764;2023-05-01T09:45:58;101595.00;;;14.75;51.83
79705;BME280;69496;53.120;8.764;2023-05-01T09:48:12;101593.00;;;14.77;51.98
79705;BME280;69496;53.120;8.764;2023-05-01T09:50:42;101591.00;;;14.79;52.15
79705;BME280;69496;53.120;8.764;2023-05-01T09:53:13;101589.00;;;14.82;51.90
79705;BME280;69496;53.120;8.764;2023-05-01T09:55:41;101587.00;;;14.83;51.91
79705;BME280;69496;53.120;8.764;2023-05-01T09:58:25;101585.00;;;14.84;51.97
79705;BME280;69496;53.120;8.764;2023-05-01T10:00:47;101582.00;;;14.84;51.51
79705;BME280;69496;53.120;8.764;2023-05-01T10:03:12;101580.00;;;14.84;51.37
79705;BME280;69496;53.120;8.764;2023-05-01T10:05:41;101579.00;;;14.86;51.17
79705;BME280;69496;53.120;8.764;2023-05-01T10:08:15;101576.00;;;14.87;50.93
79705;BME280;69496;53.120;8.764;2023-05-01T10:11:03;101575.00;;;14.89;51.10
79705;BME280;69496;53.120;8.764;2023-05-01T10:13:15;101575.00;;;14.92;51.09
79705;BME280;69496;53.120;8.764;2023-05-01T10:15:41;101572.00;;;14.96;51.71
79705;BME280;69496;53.120;8.764;2023-05-01T10:18:13;101570.00;;;15.00;50.89
79705;BME280;69496;53.120;8.764;2023-05-01T10:20:41;101568.00;;;15.04;50.72
79705;BME280;69496;53.120;8.764;2023-05-01T10:23:11;101566.00;;;15.09;50.64
79705;BME280;69496;53.120;8.764;2023-05-01T10:25:41;101565.00;;;15.14;50.73
79705;BME280;69496;53.120;8.764;2023-05-01T10:28:11;101563.00;;;15.19;50.92
79705;BME280;69496;53.120;8.764;2023-05-01T10:30:43;101561.00;;;15.24;50.75
79705;BME280;69496;53.120;8.764;2023-05-01T10:33:12;101559.00;;;15.30;49.96
79705;BME280;69496;53.120;8.764;2023-05-01T10:35:44;101558.00;;;15.37;50.77
79705;BME280;69496;53.120;8.764;2023-05-01T10:38:21;101557.00;;;15.44;49.00
79705;BME280;69496;53.120;8.764;2023-05-01T10:40:45;101556.00;;;15.51;47.11
79705;BME280;69496;53.120;8.764;2023-05-01T10:43:13;101555.00;;;15.58;46.49
79705;BME280;69496;53.120;8.764;2023-05-01T10:45:42;101554.00;;;15.65;47.36
79705;BME280;69496;53.120;8.764;2023-05-01T10:48:11;101552.00;;;15.73;47.44
79705;BME280;69496;53.120;8.764;2023-05-01T10:53:16;101548.00;;;15.89;46.77
79705;BME280;69496;53.120;8.764;2023-05-01T10:55:45;101548.00;;;15.96;46.81
79705;BME280;69496;53.120;8.764;2023-05-01T10:58:13;101546.00;;;16.03;46.55
79705;BME280;69496;53.120;8.764;2023-05-01T11:00:41;101544.00;;;16.10;46.18
79705;BME280;69496;53.120;8.764;2023-05-01T11:06:04;101537.00;;;16.23;47.21
79705;BME280;69496;53.120;8.764;2023-05-01T11:08:36;101533.00;;;16.28;47.30
79705;BME280;69496;53.120;8.764;2023-05-01T11:10:41;101529.00;;;16.32;47.51
79705;BME280;69496;53.120;8.764;2023-05-01T11:13:11;101524.00;;;16.35;47.47
79705;BME280;69496;53.120;8.764;2023-05-01T11:15:41;101520.00;;;16.39;46.94
79705;BME280;69496;53.120;8.764;2023-05-01T11:18:12;101516.00;;;16.42;48.17
79705;BME280;69496;53.120;8.764;2023-05-01T11:20:45;101513.00;;;16.46;47.40
79705;BME280;69496;53.120;8.764;2023-05-01T11:23:15;101512.00;;;16.51;48.43
79705;BME280;69496;53.120;8.764;2023-05-01T11:25:41;101510.00;;;16.56;47.54
79705;BME280;69496;53.120;8.764;2023-05-01T11:28:17;101508.00;;;16.61;47.36
79705;BME280;69496;53.120;8.764;2023-05-01T11:30:41;101505.00;;;16.65;47.60
79705;BME280;69496;53.120;8.764;2023-05-01T11:33:11;101503.00;;;16.68;46.54
79705;BME280;69496;53.120;8.764;2023-05-01T11:35:41;101501.00;;;16.70;45.81
79705;BME280;69496;53.120;8.764;2023-05-01T11:38:17;101499.00;;;16.72;46.55
79705;BME280;69496;53.120;8.764;2023-05-01T11:40:41;101497.00;;;16.74;47.32
79705;BME280;69496;53.120;8.764;2023-05-01T11:43:12;101495.00;;;16.78;47.99
79705;BME280;69496;53.120;8.764;2023-05-01T11:45:41;101494.00;;;16.81;48.02
79705;BME280;69496;53.120;8.764;2023-05-01T11:48:14;101492.00;;;16.83;47.15
79705;BME280;69496;53.120;8.764;2023-05-01T11:50:41;101489.00;;;16.84;46.97
79705;BME280;69496;53.120;8.764;2023-05-01T11:53:13;101485.00;;;16.85;48.68
79705;BME280;69496;53.120;8.764;2023-05-01T11:55:42;101483.00;;;16.87;49.47
79705;BME280;69496;53.120;8.764;2023-05-01T11:58:12;101481.00;;;16.89;47.16
79705;BME280;69496;53.120;8.764;2023-05-01T12:00:42;101479.00;;;16.92;47.03
79705;BME280;69496;53.120;8.764;2023-05-01T12:03:13;101476.00;;;16.94;47.00
79705;BME280;69496;53.120;8.764;2023-05-01T12:05:43;101473.00;;;16.96;47.38
79705;BME280;69496;53.120;8.764;2023-05-01T12:08:15;101471.00;;;16.97;48.17
79705;BME280;69496;53.120;8.764;2023-05-01T12:10:42;101469.00;;;17.00;47.44
79705;BME280;69496;53.120;8.764;2023-05-01T12:13:13;101468.00;;;17.02;47.96
79705;BME280;69496;53.120;8.764;2023-05-01T12:15:43;101466.00;;;17.04;47.60
79705;BME280;69496;53.120;8.764;2023-05-01T12:18:13;101464.00;;;17.07;48.40
79705;BME280;69496;53.120;8.764;2023-05-01T12:20:43;101462.00;;;17.09;48.68
79705;BME280;69496;53.120;8.764;2023-05-01T12:23:12;101461.00;;;17.10;48.85
79705;BME280;69496;53.120;8.764;2023-05-01T12:25:44;101459.00;;;17.11;47.39
79705;BME280;69496;53.120;8.764;2023-05-01T12:28:14;101457.00;;;17.13;47.74
79705;BME280;69496;53.120;8.764;2023-05-01T12:30:42;101454.00;;;17.15;47.21
79705;BME280;69496;53.120;8.764;2023-05-01T12:33:13;101450.00;;;17.15;46.81
79705;BME280;69496;53.120;8.764;2023-05-01T12:35:42;101448.00;;;17.15;47.10
79705;BME280;69496;53.120;8.764;2023-05-01T12:38:17;101445.00;;;17.16;47.89
79705;BME280;69496;53.120;8.764;2023-05-01T12:40:55;101443.00;;;17.19;48.48
79705;BME280;69496;53.120;8.764;2023-05-01T12:43:11;101442.00;;;17.22;48.75
79705;BME280;69496;53.120;8.764;2023-05-01T12:45:41;101441.00;;;17.26;48.46
79705;BME280;69496;53.120;8.764;2023-05-01T12:48:12;101439.00;;;17.29;48.53
79705;BME280;69496;53.120;8.764;2023-05-01T12:50:41;101437.00;;;17.31;48.09
79705;BME280;69496;53.120;8.764;2023-05-01T12:53:11;101432.00;;;17.33;48.50
79705;BME280;69496;53.120;8.764;2023-05-01T12:55:42;101429.00;;;17.35;47.57
79705;BME280;69496;53.120;8.764;2023-05-01T12:58:11;101427.00;;;17.36;47.65
79705;BME280;69496;53.120;8.764;2023-05-01T13:00:45;101425.00;;;17.38;47.46
79705;BME280;69496;53.120;8.764;2023-05-01T13:03:11;101422.00;;;17.41;48.18
79705;BME280;69496;53.120;8.764;2023-05-01T13:05:51;101419.00;;;17.45;48.47
79705;BME280;69496;53.120;8.764;2023-05-01T13:08:11;101416.00;;;17.50;47.68
79705;BME280;69496;53.120;8.764;2023-05-01T13:10:42;101413.00;;;17.55;46.56
79705;BME280;69496;53.120;8.764;2023-05-01T13:13:11;101410.00;;;17.61;46.18
79705;BME280;69496;53.120;8.764;2023-05-01T13:15:41;101410.00;;;17.67;46.74
79705;BME280;69496;53.120;8.764;2023-05-01T13:18:11;101409.00;;;17.73;47.62
79705;BME280;69496;53.120;8.764;2023-05-01T13:20:42;101407.00;;;17.77;46.73
79705;BME280;69496;53.120;8.764;2023-05-01T13:23:15;101404.00;;;17.79;46.90
79705;BME280;69496;53.120;8.764;2023-05-01T13:25:41;101403.00;;;17.81;47.45
79705;BME280;69496;53.120;8.764;2023-05-01T13:28:16;101402.00;;;17.82;46.26